Time,TemperatureF,DewpointF,PressureIn,WindDirection,WindDirectionDegrees,WindSpeedMPH,WindSpeedGustMPH,Humidity,HourlyPrecipIn,Conditions,Clouds,dailyrainin,SolarRadiationWatts/m^2,SoftwareType,DateUTC
2013-10-15 00:02:00,39.0,22.0,-100.00,NNE,23,5.0,7.0,51,0.00,,,0.00,1.000000,,2013-10-15 06:02:00,
2013-10-15 00:12:00,39.0,22.0,-100.00,NNE,23,5.0,7.0,51,0.00,,,0.00,1.000000,,2013-10-15 06:12:00,
2013-10-15 00:43:00,40.0,24.0,-100.00,NE,48,5.0,6.0,53,0.00,,,0.00,1.000000,,2013-10-15 06:43:00,
2013-10-15 00:52:00,40.0,24.0,-100.00,NE,48,5.0,6.0,53,0.00,,,0.00,1.000000,,2013-10-15 06:52:00,
2013-10-15 01:02:00,40.0,24.0,-100.00,NE,48,5.0,6.0,53,0.00,,,0.00,1.000000,,2013-10-15 07:02:00,
2013-10-15 01:12:00,40.0,24.0,-100.00,NE,48,5.0,6.0,53,0.00,,,0.00,1.000000,,2013-10-15 07:12:00,
2013-10-15 01:42:00,40.0,23.0,-100.00,ESE,117,4.0,6.0,51,0.00,,,0.00,1.000000,,2013-10-15 07:42:00,
2013-10-15 01:52:00,40.0,23.0,-100.00,ESE,117,4.0,6.0,51,0.00,,,0.00,1.000000,,2013-10-15 07:52:00,
2013-10-15 02:02:00,40.0,23.0,-100.00,ESE,117,4.0,6.0,51,0.00,,,0.00,1.000000,,2013-10-15 08:02:00,
2013-10-15 02:12:00,40.0,23.0,-100.00,ESE,117,4.0,6.0,51,0.00,,,0.00,1.000000,,2013-10-15 08:12:00,
2013-10-15 02:42:00,39.0,24.0,-100.00,SW,234,2.0,5.0,54,-99.99,,,0.00,1.000000,,2013-10-15 08:42:00,
2013-10-15 02:52:00,39.0,24.0,-100.00,SW,234,2.0,5.0,54,-99.99,,,0.00,1.000000,,2013-10-15 08:52:00,
2013-10-15 03:02:00,39.0,24.0,-100.00,SW,234,2.0,5.0,54,-99.99,,,0.00,1.000000,,2013-10-15 09:02:00,
2013-10-15 03:43:00,39.0,23.0,-100.00,SW,222,0.0,3.0,53,-99.99,,,0.00,1.000000,,2013-10-15 09:43:00,
2013-10-15 03:53:00,39.0,23.0,-100.00,SW,222,0.0,3.0,53,-99.99,,,0.00,1.000000,,2013-10-15 09:53:00,
2013-10-15 04:03:00,39.0,23.0,-100.00,SW,222,0.0,3.0,53,-99.99,,,0.00,1.000000,,2013-10-15 10:03:00,
2013-10-15 06:42:00,36.0,22.0,-100.00,East,101,5.0,6.0,57,-99.99,,,0.00,1.000000,,2013-10-15 12:42:00,
2013-10-15 07:42:00,33.0,23.0,-100.00,East,94,5.0,7.0,65,0.00,,,0.00,1.000000,,2013-10-15 13:42:00,
2013-10-15 07:52:00,33.0,23.0,-100.00,East,94,5.0,7.0,65,0.00,,,0.00,1.000000,,2013-10-15 13:52:00,
2013-10-15 08:02:00,33.0,23.0,-100.00,East,94,5.0,7.0,65,0.00,,,0.00,1.000000,,2013-10-15 14:02:00,
2013-10-15 08:11:00,33.0,23.0,-100.00,East,94,5.0,7.0,65,0.00,,,0.00,1.000000,,2013-10-15 14:11:00,
2013-10-15 11:12:00,53.0,25.0,-100.00,NE,40,3.0,8.0,33,0.00,,,0.00,508.000000,,2013-10-15 17:12:00,
2013-10-15 11:42:00,51.0,25.0,-100.00,NNW,344,8.0,17.0,36,0.00,,,0.00,698.000000,,2013-10-15 17:42:00,
2013-10-15 11:53:00,51.0,25.0,-100.00,NNW,344,8.0,17.0,36,0.00,,,0.00,698.000000,,2013-10-15 17:53:00,
2013-10-15 12:02:00,51.0,25.0,-100.00,NNW,344,8.0,17.0,36,0.00,,,0.00,698.000000,,2013-10-15 18:02:00,
2013-10-15 12:12:00,51.0,25.0,-100.00,NNW,344,8.0,17.0,36,0.00,,,0.00,698.000000,,2013-10-15 18:12:00,
2013-10-15 12:42:00,54.0,24.0,-100.00,NNW,330,7.0,13.0,31,0.00,,,0.00,720.000000,,2013-10-15 18:42:00,
2013-10-15 12:52:00,54.0,24.0,-100.00,NNW,330,7.0,13.0,31,0.00,,,0.00,720.000000,,2013-10-15 18:52:00,
2013-10-15 13:01:00,54.0,24.0,-100.00,NNW,330,7.0,13.0,31,0.00,,,0.00,720.000000,,2013-10-15 19:01:00,
2013-10-15 13:11:00,54.0,24.0,-100.00,NNW,330,7.0,13.0,31,0.00,,,0.00,720.000000,,2013-10-15 19:11:00,
2013-10-15 13:42:00,55.0,19.0,-100.00,NW,320,5.0,14.0,24,0.00,,,0.00,722.000000,,2013-10-15 19:42:00,
2013-10-15 13:52:00,55.0,19.0,-100.00,NW,320,5.0,14.0,24,0.00,,,0.00,722.000000,,2013-10-15 19:52:00,
2013-10-15 14:03:00,55.0,19.0,-100.00,NW,320,5.0,14.0,24,0.00,,,0.00,722.000000,,2013-10-15 20:03:00,
2013-10-15 14:12:00,55.0,19.0,-100.00,NW,320,5.0,14.0,24,0.00,,,0.00,722.000000,,2013-10-15 20:12:00,
2013-10-15 14:42:00,57.0,16.0,-100.00,SW,224,6.0,12.0,20,0.00,,,0.00,820.000000,,2013-10-15 20:42:00,
2013-10-15 14:52:00,57.0,16.0,-100.00,SW,224,6.0,12.0,20,0.00,,,0.00,820.000000,,2013-10-15 20:52:00,
2013-10-15 15:02:00,57.0,16.0,-100.00,SW,224,6.0,12.0,20,0.00,,,0.00,820.000000,,2013-10-15 21:02:00,
2013-10-15 15:12:00,57.0,16.0,-100.00,SW,224,6.0,12.0,20,0.00,,,0.00,820.000000,,2013-10-15 21:12:00,
2013-10-15 15:44:00,58.0,19.0,-100.00,NNW,334,7.0,14.0,22,0.00,,,0.00,727.000000,,2013-10-15 21:44:00,
2013-10-15 15:54:00,58.0,19.0,-100.00,NNW,334,7.0,14.0,22,0.00,,,0.00,727.000000,,2013-10-15 21:54:00,
2013-10-15 16:04:00,58.0,19.0,-100.00,NNW,334,7.0,14.0,22,0.00,,,0.00,727.000000,,2013-10-15 22:04:00,
2013-10-15 16:13:00,58.0,19.0,-100.00,NNW,334,7.0,14.0,22,0.00,,,0.00,727.000000,,2013-10-15 22:13:00,
2013-10-15 16:43:00,59.0,14.0,-100.00,WSW,243,7.0,13.0,17,0.00,,,0.00,693.000000,,2013-10-15 22:43:00,
2013-10-15 16:53:00,59.0,14.0,-100.00,WSW,243,7.0,13.0,17,0.00,,,0.00,693.000000,,2013-10-15 22:53:00,
2013-10-15 17:03:00,59.0,14.0,-100.00,WSW,243,7.0,13.0,17,0.00,,,0.00,693.000000,,2013-10-15 23:03:00,
2013-10-15 17:12:00,59.0,14.0,-100.00,WSW,243,7.0,13.0,17,0.00,,,0.00,693.000000,,2013-10-15 23:12:00,
2013-10-15 17:43:00,57.0,20.0,-100.00,NNW,331,10.0,21.0,23,0.00,,,0.00,408.000000,,2013-10-15 23:43:00,
2013-10-15 17:52:00,57.0,20.0,-100.00,NNW,331,10.0,21.0,23,0.00,,,0.00,408.000000,,2013-10-15 23:52:00,
2013-10-15 18:01:00,57.0,20.0,-100.00,NNW,331,10.0,21.0,23,0.00,,,0.00,408.000000,,2013-10-16 00:01:00,
2013-10-15 18:12:00,57.0,20.0,-100.00,NNW,331,10.0,21.0,23,0.00,,,0.00,408.000000,,2013-10-16 00:12:00,
2013-10-15 18:42:00,50.0,18.0,-100.00,NW,317,11.0,18.0,28,0.00,,,0.00,124.000000,,2013-10-16 00:42:00,
2013-10-15 18:52:00,50.0,18.0,-100.00,NW,317,11.0,18.0,28,0.00,,,0.00,124.000000,,2013-10-16 00:52:00,
2013-10-15 19:02:00,50.0,18.0,-100.00,NW,317,11.0,18.0,28,0.00,,,0.00,124.000000,,2013-10-16 01:02:00,
2013-10-15 19:11:00,50.0,18.0,-100.00,NW,317,11.0,18.0,28,0.00,,,0.00,124.000000,,2013-10-16 01:11:00,
2013-10-15 19:42:00,46.0,18.0,-100.00,NW,310,5.0,17.0,32,0.00,,,0.00,6.000000,,2013-10-16 01:42:00,
2013-10-15 19:52:00,46.0,18.0,-100.00,NW,310,5.0,17.0,32,0.00,,,0.00,6.000000,,2013-10-16 01:52:00,
2013-10-15 20:02:00,46.0,18.0,-100.00,NW,310,5.0,17.0,32,0.00,,,0.00,6.000000,,2013-10-16 02:02:00,
2013-10-15 20:12:00,46.0,18.0,-100.00,NW,310,5.0,17.0,32,0.00,,,0.00,6.000000,,2013-10-16 02:12:00,
2013-10-15 20:42:00,42.0,19.0,-100.00,West,278,5.0,10.0,40,0.00,,,0.00,1.000000,,2013-10-16 02:42:00,
2013-10-15 20:52:00,42.0,19.0,-100.00,West,278,5.0,10.0,40,0.00,,,0.00,1.000000,,2013-10-16 02:52:00,
2013-10-15 21:02:00,42.0,19.0,-100.00,West,278,5.0,10.0,40,0.00,,,0.00,1.000000,,2013-10-16 03:02:00,
2013-10-15 21:11:00,42.0,19.0,-100.00,West,278,5.0,10.0,40,0.00,,,0.00,1.000000,,2013-10-16 03:11:00,
2013-10-15 21:45:00,40.0,20.0,-100.00,WNW,291,6.0,10.0,45,0.00,,,0.00,1.000000,,2013-10-16 03:45:00,
2013-10-15 21:55:00,40.0,20.0,-100.00,WNW,291,6.0,10.0,45,0.00,,,0.00,1.000000,,2013-10-16 03:55:00,
2013-10-15 22:04:00,40.0,20.0,-100.00,WNW,291,6.0,10.0,45,0.00,,,0.00,1.000000,,2013-10-16 04:04:00,
2013-10-15 22:13:00,40.0,20.0,-100.00,WNW,291,6.0,10.0,45,0.00,,,0.00,1.000000,,2013-10-16 04:13:00,
2013-10-15 22:43:00,41.0,26.0,-100.00,WNW,302,11.0,16.0,54,0.00,,,0.00,1.000000,,2013-10-16 04:43:00,
2013-10-15 22:54:00,41.0,26.0,-100.00,WNW,302,11.0,16.0,54,0.00,,,0.00,1.000000,,2013-10-16 04:54:00,
2013-10-15 23:04:00,41.0,26.0,-100.00,WNW,302,11.0,16.0,54,0.00,,,0.00,1.000000,,2013-10-16 05:04:00,
2013-10-15 23:13:00,41.0,26.0,-100.00,WNW,302,11.0,16.0,54,0.00,,,0.00,1.000000,,2013-10-16 05:13:00,
2013-10-15 23:43:00,40.0,24.0,-100.00,NW,319,7.0,13.0,52,0.00,,,0.00,1.000000,,2013-10-16 05:43:00,
2013-10-15 23:53:00,40.0,24.0,-100.00,NW,319,7.0,13.0,52,0.00,,,0.00,1.000000,,2013-10-16 05:53:00,